Time;durP1;ratioP1;P1;durP2;ratioP2;P2;SDS_P1;SDS_P2;PMS_P1;PMS_P2;Temp;Humidity;BMP_temperature;BMP_pressure;BME280_temperature;BME280_humidity;BME280_pressure;Samples;Min_cycle;Max_cycle;Signal;HPM_P1;HPM_P2
2024/04/20 00:01:21;;;;;;;5.18;2.22;;;;;;;;;;5543727;25;20061;-57
2024/04/20 00:03:50;;;;;;;4.78;2.58;;;;;;;;;;5557244;25;20016;-57
2024/04/20 00:06:17;;;;;;;4.10;1.90;;;;;;;;;;5532616;25;20005;-57
2024/04/20 00:08:44;;;;;;;3.75;2.20;;;;;;;;;;5543458;25;20001;-56
2024/04/20 00:11:10;;;;;;;4.20;2.30;;;;;;;;;;5545175;25;19998;-56
2024/04/20 00:13:37;;;;;;;4.07;2.17;;;;;;;;;;5526290;25;20437;-57
2024/04/20 00:16:04;;;;;;;8.77;2.33;;;;;;;;;;5535872;25;20008;-57
2024/04/20 00:18:30;;;;;;;6.30;2.80;;;;;;;;;;5529825;25;19998;-57
2024/04/20 00:20:56;;;;;;;5.43;2.85;;;;;;;;;;5525469;25;19997;-57
2024/04/20 00:23:22;;;;;;;4.25;2.40;;;;;;;;;;5545148;25;20005;-57
2024/04/20 00:25:48;;;;;;;4.70;2.50;;;;;;;;;;5542012;25;20534;-57
2024/04/20 00:28:14;;;;;;;5.82;2.50;;;;;;;;;;5543058;25;20348;-57
2024/04/20 00:30:40;;;;;;;5.97;2.75;;;;;;;;;;5557669;25;20004;-57
2024/04/20 00:33:06;;;;;;;3.53;1.90;;;;;;;;;;5528573;25;20030;-57
2024/04/20 00:35:41;;;;;;;4.47;2.40;;;;;;;;;;5542302;25;20732;-56
2024/04/20 00:38:07;;;;;;;3.85;2.03;;;;;;;;;;5540906;25;19993;-56
2024/04/20 00:40:33;;;;;;;3.65;2.13;;;;;;;;;;5526362;25;20012;-57
2024/04/20 00:42:59;;;;;;;4.05;2.20;;;;;;;;;;5530241;25;19997;-57
2024/04/20 00:45:25;;;;;;;2.55;2.00;;;;;;;;;;5534799;25;20012;-57
2024/04/20 00:47:51;;;;;;;6.28;2.83;;;;;;;;;;5529141;25;20002;-58
2024/04/20 00:50:17;;;;;;;5.10;2.72;;;;;;;;;;5548487;25;19997;-57
2024/04/20 00:52:44;;;;;;;3.75;2.08;;;;;;;;;;5536166;25;20314;-56
2024/04/20 00:55:10;;;;;;;4.20;2.30;;;;;;;;;;5540164;25;19993;-57
2024/04/20 00:57:36;;;;;;;6.35;2.20;;;;;;;;;;5526381;25;19993;-57
2024/04/20 01:00:02;;;;;;;3.30;1.83;;;;;;;;;;5546589;25;19996;-56
2024/04/20 01:02:29;;;;;;;5.07;2.28;;;;;;;;;;5529056;25;20361;-59
2024/04/20 01:04:55;;;;;;;8.73;2.17;;;;;;;;;;5545959;25;19992;-61
2024/04/20 01:07:21;;;;;;;3.55;2.40;;;;;;;;;;5538824;25;20000;-61
2024/04/20 01:09:47;;;;;;;2.97;1.98;;;;;;;;;;5542035;25;20064;-60
2024/04/20 01:12:13;;;;;;;5.80;1.83;;;;;;;;;;5532877;25;19993;-61
2024/04/20 01:14:40;;;;;;;3.30;1.75;;;;;;;;;;5526410;25;20016;-61
2024/04/20 01:17:06;;;;;;;2.97;2.03;;;;;;;;;;5537678;25;20028;-60
2024/04/20 01:19:34;;;;;;;4.15;1.92;;;;;;;;;;5552219;25;20000;-60
2024/04/20 01:22:00;;;;;;;2.70;1.75;;;;;;;;;;5536680;25;20016;-57
2024/04/20 01:24:28;;;;;;;3.60;2.17;;;;;;;;;;5533559;25;19994;-61
2024/04/20 01:26:54;;;;;;;2.38;1.65;;;;;;;;;;5525763;25;20485;-60
2024/04/20 01:29:20;;;;;;;3.67;1.60;;;;;;;;;;5525220;25;20445;-61
2024/04/20 01:31:46;;;;;;;2.95;1.70;;;;;;;;;;5556638;25;20053;-61
2024/04/20 01:34:12;;;;;;;2.47;1.65;;;;;;;;;;5544999;25;20072;-60
2024/04/20 01:36:38;;;;;;;3.00;2.05;;;;;;;;;;5525704;25;20033;-61
2024/04/20 01:39:04;;;;;;;1.98;1.42;;;;;;;;;;5528290;25;20029;-61
2024/04/20 01:41:30;;;;;;;3.25;1.38;;;;;;;;;;5525448;25;20005;-61
2024/04/20 01:43:56;;;;;;;2.65;1.58;;;;;;;;;;5536901;25;20020;-61
2024/04/20 01:46:22;;;;;;;2.55;1.60;;;;;;;;;;5525229;25;19994;-61
2024/04/20 01:48:48;;;;;;;2.88;1.42;;;;;;;;;;5540156;25;20429;-60
2024/04/20 01:51:14;;;;;;;2.50;1.70;;;;;;;;;;5546123;25;19993;-60
2024/04/20 01:53:40;;;;;;;2.35;1.52;;;;;;;;;;5540587;25;20015;-61
2024/04/20 01:56:06;;;;;;;6.25;1.30;;;;;;;;;;5538610;25;20804;-61
2024/04/20 01:58:33;;;;;;;3.30;1.23;;;;;;;;;;5527763;25;20006;-60
2024/04/20 02:00:59;;;;;;;2.33;1.30;;;;;;;;;;5547466;25;20484;-61
2024/04/20 02:03:25;;;;;;;2.05;1.50;;;;;;;;;;5543408;25;20068;-61
2024/04/20 02:05:50;;;;;;;1.63;1.13;;;;;;;;;;5534045;25;20000;-61
2024/04/20 02:08:16;;;;;;;2.03;1.45;;;;;;;;;;5539271;25;20001;-60
2024/04/20 02:10:42;;;;;;;2.53;1.50;;;;;;;;;;5555043;25;19993;-55
2024/04/20 02:13:08;;;;;;;2.15;1.40;;;;;;;;;;5545001;25;20012;-55
2024/04/20 02:15:34;;;;;;;2.35;1.60;;;;;;;;;;5543437;25;20445;-53
2024/04/20 02:18:00;;;;;;;2.38;1.27;;;;;;;;;;5531608;25;20546;-55
2024/04/20 02:20:26;;;;;;;2.80;1.42;;;;;;;;;;5524901;25;20025;-53
2024/04/20 02:22:52;;;;;;;2.33;1.13;;;;;;;;;;5530714;25;20005;-54
2024/04/20 02:25:18;;;;;;;1.70;1.10;;;;;;;;;;5549637;25;20157;-53
2024/04/20 02:27:44;;;;;;;1.27;0.80;;;;;;;;;;5537712;25;20012;-54
2024/04/20 02:30:10;;;;;;;5.65;0.90;;;;;;;;;;5527197;25;20381;-54
2024/04/20 02:32:36;;;;;;;1.10;0.80;;;;;;;;;;5543494;25;20077;-54
2024/04/20 02:35:02;;;;;;;1.30;0.80;;;;;;;;;;5538902;25;20445;-52
2024/04/20 02:37:30;;;;;;;4.00;0.80;;;;;;;;;;5536621;25;19997;-53
2024/04/20 02:39:56;;;;;;;1.02;0.73;;;;;;;;;;5530490;25;20011;-54
2024/04/20 02:42:22;;;;;;;0.88;0.77;;;;;;;;;;5544595;25;20047;-55
2024/04/20 02:44:48;;;;;;;0.70;0.60;;;;;;;;;;5525876;25;20009;-54
2024/04/20 02:47:14;;;;;;;1.25;0.68;;;;;;;;;;5524728;25;20002;-52
2024/04/20 02:49:40;;;;;;;5.05;0.88;;;;;;;;;;5536348;25;20077;-53
2024/04/20 02:52:06;;;;;;;1.13;0.80;;;;;;;;;;5527583;25;20453;-53
2024/04/20 02:54:32;;;;;;;1.10;0.50;;;;;;;;;;5548697;25;20455;-54
2024/04/20 02:56:58;;;;;;;0.90;0.73;;;;;;;;;;5534268;25;20444;-54
2024/04/20 02:59:24;;;;;;;1.00;0.65;;;;;;;;;;5539053;25;20041;-53
2024/04/20 03:01:50;;;;;;;2.58;0.77;;;;;;;;;;5540106;25;20354;-57
2024/04/20 03:04:16;;;;;;;0.80;0.52;;;;;;;;;;5548639;25;20029;-51
2024/04/20 03:06:42;;;;;;;1.88;0.60;;;;;;;;;;5526125;25;20449;-52
2024/04/20 03:09:08;;;;;;;1.23;0.90;;;;;;;;;;5547406;25;20371;-53
2024/04/20 03:11:34;;;;;;;2.05;0.80;;;;;;;;;;5541382;25;19996;-54
2024/04/20 03:14:00;;;;;;;0.70;0.52;;;;;;;;;;5532555;25;20072;-53
2024/04/20 03:16:26;;;;;;;1.13;0.60;;;;;;;;;;5538251;25;20572;-54
2024/04/20 03:18:52;;;;;;;0.70;0.57;;;;;;;;;;5534461;25;19997;-61
2024/04/20 03:21:19;;;;;;;1.20;0.75;;;;;;;;;;5532992;25;19997;-61
2024/04/20 03:23:45;;;;;;;1.08;0.50;;;;;;;;;;5544473;25;20048;-61
2024/04/20 03:26:11;;;;;;;1.48;0.60;;;;;;;;;;5535766;25;20012;-60
2024/04/20 03:28:37;;;;;;;3.42;0.75;;;;;;;;;;5527994;25;20433;-61
2024/04/20 03:31:03;;;;;;;4.63;0.60;;;;;;;;;;5528846;25;20038;-61
2024/04/20 03:33:34;;;;;;;0.70;0.50;;;;;;;;;;5536593;25;20001;-60
2024/04/20 03:36:00;;;;;;;1.90;0.60;;;;;;;;;;5534443;25;20009;-60
2024/04/20 03:38:27;;;;;;;0.73;0.43;;;;;;;;;;5538677;25;20003;-60
2024/04/20 03:40:53;;;;;;;0.50;0.32;;;;;;;;;;5549517;25;20318;-60
2024/04/20 03:43:20;;;;;;;0.52;0.45;;;;;;;;;;5538260;25;20011;-61
2024/04/20 03:45:50;;;;;;;1.33;0.70;;;;;;;;;;5546226;25;20016;-59
2024/04/20 03:48:16;;;;;;;0.50;0.50;;;;;;;;;;5535051;25;20005;-60
2024/04/20 03:50:42;;;;;;;0.95;0.57;;;;;;;;;;5543275;25;20002;-60
2024/04/20 03:53:07;;;;;;;0.82;0.60;;;;;;;;;;5528877;25;20012;-60
2024/04/20 03:55:33;;;;;;;0.98;0.50;;;;;;;;;;5542410;25;19998;-60
2024/04/20 03:57:59;;;;;;;1.00;0.63;;;;;;;;;;5528217;25;20446;-60
2024/04/20 04:00:25;;;;;;;0.82;0.57;;;;;;;;;;5552206;25;20376;-60
2024/04/20 04:02:51;;;;;;;3.97;0.60;;;;;;;;;;5525096;25;20005;-60
2024/04/20 04:05:17;;;;;;;0.77;0.55;;;;;;;;;;5538696;25;20132;-60
2024/04/20 04:07:43;;;;;;;2.30;0.52;;;;;;;;;;5531191;25;20369;-58
2024/04/20 04:10:09;;;;;;;2.10;0.65;;;;;;;;;;5535524;25;20356;-61
2024/04/20 04:12:35;;;;;;;1.55;0.50;;;;;;;;;;5553187;25;20093;-60
2024/04/20 04:15:01;;;;;;;0.70;0.57;;;;;;;;;;5529847;25;20035;-61
2024/04/20 04:17:28;;;;;;;1.60;0.50;;;;;;;;;;5530825;25;20016;-61
2024/04/20 04:19:54;;;;;;;7.22;0.88;;;;;;;;;;5545482;25;20418;-61
2024/04/20 04:22:20;;;;;;;1.02;0.60;;;;;;;;;;5535191;25;20076;-60
2024/04/20 04:24:46;;;;;;;0.60;0.50;;;;;;;;;;5549081;25;20015;-60
2024/04/20 04:27:13;;;;;;;0.40;0.40;;;;;;;;;;5542821;25;22394;-60
2024/04/20 04:29:40;;;;;;;0.93;0.65;;;;;;;;;;5542165;25;20401;-60
2024/04/20 04:32:06;;;;;;;0.60;0.50;;;;;;;;;;5545283;25;19997;-60
2024/04/20 04:34:32;;;;;;;3.33;2.08;;;;;;;;;;5539402;25;20032;-60
2024/04/20 04:36:58;;;;;;;1.73;1.20;;;;;;;;;;5539286;25;20368;-60
2024/04/20 04:39:24;;;;;;;0.88;0.60;;;;;;;;;;5546196;25;20712;-61
2024/04/20 04:41:50;;;;;;;0.70;0.55;;;;;;;;;;5531567;25;19993;-60
2024/04/20 04:44:16;;;;;;;1.35;0.80;;;;;;;;;;5543730;25;20098;-62
2024/04/20 04:46:42;;;;;;;1.10;0.80;;;;;;;;;;5538723;25;20009;-61
2024/04/20 04:49:08;;;;;;;1.50;0.60;;;;;;;;;;5554861;25;20018;-61
2024/04/20 04:51:33;;;;;;;0.98;0.73;;;;;;;;;;5543740;25;20859;-61
2024/04/20 04:53:59;;;;;;;2.40;0.65;;;;;;;;;;5532671;25;20633;-62
2024/04/20 04:56:26;;;;;;;2.95;0.90;;;;;;;;;;5534227;25;19998;-61
2024/04/20 04:58:55;;;;;;;0.60;0.50;;;;;;;;;;5554069;25;19992;-61
2024/04/20 05:01:21;;;;;;;1.00;0.75;;;;;;;;;;5541013;25;20002;-61
2024/04/20 05:03:47;;;;;;;1.08;0.75;;;;;;;;;;5540939;25;20022;-60
2024/04/20 05:06:13;;;;;;;1.95;1.73;;;;;;;;;;5544958;25;20081;-61
2024/04/20 05:08:39;;;;;;;3.13;1.30;;;;;;;;;;5557112;25;20261;-57
2024/04/20 05:11:05;;;;;;;1.48;1.27;;;;;;;;;;5544704;25;19997;-60
2024/04/20 05:13:31;;;;;;;1.08;0.75;;;;;;;;;;5557429;25;20016;-60
2024/04/20 05:15:57;;;;;;;1.50;1.25;;;;;;;;;;5549480;25;20329;-61
2024/04/20 05:18:23;;;;;;;1.00;0.90;;;;;;;;;;5546137;25;19993;-62
2024/04/20 05:20:50;;;;;;;1.15;0.82;;;;;;;;;;5560916;25;20072;-61
2024/04/20 05:23:16;;;;;;;1.48;0.88;;;;;;;;;;5554227;25;20322;-59
2024/04/20 05:25:43;;;;;;;1.70;1.35;;;;;;;;;;5547147;25;20008;-61
2024/04/20 05:28:09;;;;;;;3.03;1.30;;;;;;;;;;5550948;25;20012;-59
2024/04/20 05:30:35;;;;;;;6.60;3.42;;;;;;;;;;5540603;25;20541;-60
2024/04/20 05:33:01;;;;;;;5.00;3.03;;;;;;;;;;5540167;25;19996;-61
2024/04/20 05:35:27;;;;;;;5.03;1.40;;;;;;;;;;5531743;25;20091;-60
2024/04/20 05:37:53;;;;;;;2.33;1.17;;;;;;;;;;5544078;25;20005;-60
2024/04/20 05:40:19;;;;;;;2.47;1.23;;;;;;;;;;5544797;25;20001;-57
2024/04/20 05:42:45;;;;;;;2.17;1.48;;;;;;;;;;5557290;25;20035;-57
2024/04/20 05:45:14;;;;;;;3.08;1.05;;;;;;;;;;5545683;25;20000;-57
2024/04/20 05:47:39;;;;;;;3.55;0.90;;;;;;;;;;5548002;25;19997;-57
2024/04/20 05:50:06;;;;;;;4.25;1.30;;;;;;;;;;5532628;25;20459;-57
2024/04/20 05:52:32;;;;;;;4.57;1.58;;;;;;;;;;5550569;25;19997;-58
2024/04/20 05:54:58;;;;;;;2.60;1.17;;;;;;;;;;5542598;25;20068;-57
2024/04/20 05:57:24;;;;;;;2.00;1.02;;;;;;;;;;5542622;25;20013;-58
2024/04/20 05:59:50;;;;;;;2.72;1.45;;;;;;;;;;5556155;25;19996;-57
2024/04/20 06:02:16;;;;;;;1.65;1.05;;;;;;;;;;5549580;25;20559;-57
2024/04/20 06:04:42;;;;;;;2.45;1.42;;;;;;;;;;5537494;25;20005;-57
2024/04/20 06:07:09;;;;;;;3.28;1.20;;;;;;;;;;5554432;25;20001;-57
2024/04/20 06:09:35;;;;;;;1.25;0.95;;;;;;;;;;5546982;25;20057;-57
2024/04/20 06:12:05;;;;;;;4.00;1.10;;;;;;;;;;5550476;25;20034;-58
2024/04/20 06:14:31;;;;;;;2.15;1.30;;;;;;;;;;5555912;25;20437;-57
2024/04/20 06:16:57;;;;;;;4.18;1.60;;;;;;;;;;5557364;25;20123;-57
2024/04/20 06:19:23;;;;;;;3.53;1.45;;;;;;;;;;5526711;25;20021;-57
2024/04/20 06:21:49;;;;;;;4.43;1.10;;;;;;;;;;5553597;25;20068;-57
2024/04/20 06:24:15;;;;;;;3.50;1.48;;;;;;;;;;5534834;25;20028;-57
2024/04/20 06:26:42;;;;;;;5.18;1.27;;;;;;;;;;5559889;25;20013;-57
2024/04/20 06:29:08;;;;;;;3.53;1.58;;;;;;;;;;5551943;25;20008;-57
2024/04/20 06:31:34;;;;;;;7.25;1.70;;;;;;;;;;5553161;25;20025;-57
2024/04/20 06:34:00;;;;;;;3.30;1.83;;;;;;;;;;5538740;25;20016;-57
2024/04/20 06:36:26;;;;;;;3.15;1.65;;;;;;;;;;5558796;25;20008;-57
2024/04/20 06:38:52;;;;;;;6.55;1.50;;;;;;;;;;5549475;25;20011;-58
2024/04/20 06:41:18;;;;;;;1.70;1.40;;;;;;;;;;5535260;25;20058;-57
2024/04/20 06:43:44;;;;;;;3.97;1.73;;;;;;;;;;5541404;25;20021;-57
2024/04/20 06:46:10;;;;;;;1.92;1.52;;;;;;;;;;5557115;25;19992;-56
2024/04/20 06:48:36;;;;;;;4.13;1.60;;;;;;;;;;5526616;25;20008;-62
2024/04/20 06:51:03;;;;;;;4.45;1.52;;;;;;;;;;5533391;25;20448;-60
2024/04/20 06:53:29;;;;;;;2.03;1.60;;;;;;;;;;5546459;25;20460;-62
2024/04/20 06:55:59;;;;;;;6.00;2.15;;;;;;;;;;5553993;25;19997;-62
2024/04/20 06:58:26;;;;;;;2.92;1.35;;;;;;;;;;5546084;25;20317;-60
2024/04/20 07:00:52;;;;;;;3.22;1.52;;;;;;;;;;5551263;25;20015;-60
2024/04/20 07:03:19;;;;;;;3.47;1.70;;;;;;;;;;5546637;25;20029;-60
2024/04/20 07:05:55;;;;;;;2.03;1.23;;;;;;;;;;5554088;25;19997;-60
2024/04/20 07:08:21;;;;;;;2.63;1.45;;;;;;;;;;5557406;25;19996;-58
2024/04/20 07:10:54;;;;;;;3.92;1.60;;;;;;;;;;5558461;25;20004;-58
2024/04/20 07:13:20;;;;;;;2.58;1.10;;;;;;;;;;5538278;25;20314;-59
2024/04/20 07:15:49;;;;;;;4.40;1.50;;;;;;;;;;5555328;25;20007;-61
2024/04/20 07:18:15;;;;;;;5.13;1.40;;;;;;;;;;5563376;25;20011;-60
2024/04/20 07:20:41;;;;;;;6.18;1.65;;;;;;;;;;5555668;25;20000;-57
2024/04/20 07:23:07;;;;;;;2.67;1.33;;;;;;;;;;5532399;25;20161;-60
2024/04/20 07:25:33;;;;;;;4.40;1.58;;;;;;;;;;5562155;25;20116;-60
2024/04/20 07:27:59;;;;;;;4.18;1.20;;;;;;;;;;5563026;25;20015;-62
2024/04/20 07:30:25;;;;;;;1.25;0.95;;;;;;;;;;5545404;25;19992;-61
2024/04/20 07:32:51;;;;;;;3.17;1.58;;;;;;;;;;5557121;25;20087;-62
2024/04/20 07:35:17;;;;;;;2.10;1.10;;;;;;;;;;5532524;25;19997;-61
2024/04/20 07:37:43;;;;;;;1.83;1.20;;;;;;;;;;5526013;25;20001;-61
2024/04/20 07:40:10;;;;;;;2.80;1.15;;;;;;;;;;5540206;25;20425;-61
2024/04/20 07:42:36;;;;;;;3.42;1.40;;;;;;;;;;5546871;25;19997;-61
2024/04/20 07:45:02;;;;;;;1.90;1.02;;;;;;;;;;5548910;25;19997;-61
2024/04/20 07:47:28;;;;;;;2.58;1.20;;;;;;;;;;5562989;25;20824;-61
2024/04/20 07:49:53;;;;;;;3.08;1.13;;;;;;;;;;5551711;25;20071;-62
2024/04/20 07:52:19;;;;;;;1.95;1.08;;;;;;;;;;5538291;25;19993;-61
2024/04/20 07:54:46;;;;;;;1.83;1.00;;;;;;;;;;5557126;25;20000;-60
2024/04/20 07:57:12;;;;;;;1.83;1.10;;;;;;;;;;5551639;25;20040;-60
2024/04/20 07:59:39;;;;;;;1.23;1.00;;;;;;;;;;5561084;25;20060;-61
2024/04/20 08:02:06;;;;;;;1.80;1.00;;;;;;;;;;5540967;25;20019;-60
2024/04/20 08:04:32;;;;;;;1.77;1.00;;;;;;;;;;5539865;25;20131;-60
2024/04/20 08:06:58;;;;;;;1.70;1.00;;;;;;;;;;5549126;25;20874;-59
2024/04/20 08:09:24;;;;;;;1.40;1.00;;;;;;;;;;5548861;25;20132;-60
2024/04/20 08:11:50;;;;;;;2.80;1.10;;;;;;;;;;5545830;25;20001;-60
2024/04/20 08:14:16;;;;;;;4.05;1.00;;;;;;;;;;5560480;25;20029;-60
2024/04/20 08:16:42;;;;;;;2.22;1.13;;;;;;;;;;5560029;25;20420;-60
2024/04/20 08:19:08;;;;;;;3.05;0.90;;;;;;;;;;5547203;25;20875;-60
2024/04/20 08:21:34;;;;;;;1.20;0.95;;;;;;;;;;5543922;25;20011;-60
2024/04/20 08:24:01;;;;;;;2.60;0.80;;;;;;;;;;5540291;25;20001;-58
2024/04/20 08:26:27;;;;;;;2.38;0.70;;;;;;;;;;5536436;25;19993;-60
2024/04/20 08:28:53;;;;;;;2.72;0.90;;;;;;;;;;5529402;25;20455;-60
2024/04/20 08:31:19;;;;;;;1.27;0.70;;;;;;;;;;5537179;25;20410;-59
2024/04/20 08:33:45;;;;;;;5.93;1.10;;;;;;;;;;5542890;25;20020;-60
2024/04/20 08:36:11;;;;;;;1.33;1.00;;;;;;;;;;5540101;25;19993;-60
2024/04/20 08:38:37;;;;;;;2.95;0.77;;;;;;;;;;5536434;25;20016;-60
2024/04/20 08:41:08;;;;;;;1.38;0.80;;;;;;;;;;5549391;25;20078;-61
2024/04/20 08:43:35;;;;;;;2.47;1.30;;;;;;;;;;5560675;25;20001;-61
2024/04/20 08:46:05;;;;;;;1.13;0.82;;;;;;;;;;5536247;25;20007;-60
2024/04/20 08:48:32;;;;;;;2.20;1.30;;;;;;;;;;5544896;25;20124;-60
2024/04/20 08:51:03;;;;;;;3.25;1.42;;;;;;;;;;5553434;25;20000;-61
2024/04/20 08:53:32;;;;;;;3.40;0.80;;;;;;;;;;5543287;25;20204;-59
2024/04/20 08:55:59;;;;;;;2.22;1.00;;;;;;;;;;5553687;25;19996;-61
2024/04/20 08:58:25;;;;;;;2.95;1.00;;;;;;;;;;5542290;25;20124;-60
2024/04/20 09:00:53;;;;;;;1.27;0.68;;;;;;;;;;5551892;25;20333;-61
2024/04/20 09:03:19;;;;;;;2.20;0.82;;;;;;;;;;5549368;25;20069;-60
2024/04/20 09:05:46;;;;;;;1.27;0.70;;;;;;;;;;5535016;25;20007;-61
2024/04/20 09:08:13;;;;;;;1.85;0.88;;;;;;;;;;5548554;25;20086;-52
2024/04/20 09:10:39;;;;;;;3.10;1.08;;;;;;;;;;5539745;25;20393;-60
2024/04/20 09:13:08;;;;;;;1.17;0.93;;;;;;;;;;5543573;25;19997;-61
2024/04/20 09:15:34;;;;;;;3.10;0.82;;;;;;;;;;5556694;25;20001;-59
2024/04/20 09:18:01;;;;;;;1.20;0.80;;;;;;;;;;5552837;25;20370;-60
2024/04/20 09:20:27;;;;;;;2.25;1.13;;;;;;;;;;5560280;25;20016;-62
2024/04/20 09:23:02;;;;;;;4.28;1.20;;;;;;;;;;5554244;25;19993;-61
2024/04/20 09:25:28;;;;;;;1.77;0.90;;;;;;;;;;5534852;25;20492;-60
2024/04/20 09:27:55;;;;;;;2.35;1.02;;;;;;;;;;5544880;25;21998;-61
2024/04/20 09:30:21;;;;;;;4.30;1.15;;;;;;;;;;5561472;25;20008;-60
2024/04/20 09:32:47;;;;;;;1.58;0.90;;;;;;;;;;5543877;25;19997;-62
2024/04/20 09:35:14;;;;;;;2.25;1.00;;;;;;;;;;5551528;25;20036;-59
2024/04/20 09:37:40;;;;;;;1.55;0.90;;;;;;;;;;5552189;25;20017;-61
2024/04/20 09:40:08;;;;;;;0.98;0.77;;;;;;;;;;5553824;25;20329;-61
2024/04/20 09:42:34;;;;;;;2.97;0.68;;;;;;;;;;5558429;25;20337;-61
2024/04/20 09:45:04;;;;;;;2.13;0.93;;;;;;;;;;5560539;25;19997;-56
2024/04/20 09:47:36;;;;;;;2.20;1.15;;;;;;;;;;5536606;25;20005;-61
2024/04/20 09:50:09;;;;;;;2.15;1.10;;;;;;;;;;5550565;25;20011;-60
2024/04/20 09:52:40;;;;;;;2.60;0.82;;;;;;;;;;5530121;25;19997;-61
2024/04/20 09:55:07;;;;;;;1.83;0.90;;;;;;;;;;5561173;25;20012;-62
2024/04/20 09:57:34;;;;;;;3.80;1.13;;;;;;;;;;5558354;25;19996;-61
2024/04/20 10:00:00;;;;;;;2.55;1.10;;;;;;;;;;5531724;25;20004;-60
2024/04/20 10:02:27;;;;;;;1.80;0.90;;;;;;;;;;5540136;25;20072;-61
2024/04/20 10:04:58;;;;;;;5.07;1.20;;;;;;;;;;5542002;25;20069;-62
2024/04/20 10:07:28;;;;;;;1.40;1.10;;;;;;;;;;5540154;25;19997;-61
2024/04/20 10:09:54;;;;;;;2.40;1.10;;;;;;;;;;5549155;25;19993;-61
2024/04/20 10:12:20;;;;;;;1.25;0.68;;;;;;;;;;5553316;25;20009;-61
2024/04/20 10:14:47;;;;;;;4.72;0.90;;;;;;;;;;5547290;25;19997;-61
2024/04/20 10:17:13;;;;;;;3.90;0.80;;;;;;;;;;5538384;25;19994;-60
2024/04/20 10:19:41;;;;;;;2.40;0.70;;;;;;;;;;5562570;25;20455;-61
2024/04/20 10:22:07;;;;;;;1.83;0.80;;;;;;;;;;5563813;25;20005;-59
2024/04/20 10:24:33;;;;;;;1.08;0.70;;;;;;;;;;5558251;25;20190;-61
2024/04/20 10:26:59;;;;;;;1.98;0.70;;;;;;;;;;5561202;25;20012;-60
2024/04/20 10:29:27;;;;;;;1.10;0.80;;;;;;;;;;5538099;25;20012;-61
2024/04/20 10:31:57;;;;;;;1.75;0.63;;;;;;;;;;5549020;25;19992;-61
2024/04/20 10:34:24;;;;;;;1.35;0.70;;;;;;;;;;5547681;25;20025;-61
2024/04/20 10:36:56;;;;;;;3.03;0.60;;;;;;;;;;5552754;25;20001;-61
2024/04/20 10:39:26;;;;;;;2.42;0.60;;;;;;;;;;5561538;25;20005;-61
2024/04/20 10:41:52;;;;;;;1.85;0.70;;;;;;;;;;5553117;25;20416;-61
2024/04/20 10:44:18;;;;;;;1.10;0.50;;;;;;;;;;5560975;25;20003;-61
2024/04/20 10:46:52;;;;;;;1.52;0.70;;;;;;;;;;5563199;25;20336;-61
2024/04/20 10:49:18;;;;;;;1.58;1.13;;;;;;;;;;5532452;25;20008;-62
2024/04/20 10:51:52;;;;;;;2.58;0.80;;;;;;;;;;5554474;25;19993;-60
2024/04/20 10:54:19;;;;;;;1.88;0.65;;;;;;;;;;5547513;25;20084;-61
2024/04/20 10:56:45;;;;;;;1.38;0.60;;;;;;;;;;5560775;25;20005;-61
2024/04/20 10:59:12;;;;;;;4.28;0.80;;;;;;;;;;5556442;25;20001;-61
2024/04/20 11:01:41;;;;;;;0.93;0.57;;;;;;;;;;5551389;25;20031;-62
2024/04/20 11:04:07;;;;;;;1.58;0.38;;;;;;;;;;5560713;25;20003;-62
2024/04/20 11:06:33;;;;;;;0.55;0.30;;;;;;;;;;5531322;25;20008;-62
2024/04/20 11:09:01;;;;;;;0.80;0.43;;;;;;;;;;5548360;25;20030;-61
2024/04/20 11:11:27;;;;;;;3.28;0.57;;;;;;;;;;5545861;25;19993;-62
2024/04/20 11:14:00;;;;;;;3.22;0.50;;;;;;;;;;5551833;25;20015;-62
2024/04/20 11:16:29;;;;;;;0.87;0.30;;;;;;;;;;5545638;25;20037;-62
2024/04/20 11:18:55;;;;;;;0.85;0.40;;;;;;;;;;5557684;25;20005;-59
2024/04/20 11:21:21;;;;;;;1.15;0.47;;;;;;;;;;5538709;25;20075;-63
2024/04/20 11:23:47;;;;;;;0.38;0.30;;;;;;;;;;5538203;25;20008;-63
2024/04/20 11:26:13;;;;;;;1.55;0.40;;;;;;;;;;5561716;25;19992;-62
2024/04/20 11:28:40;;;;;;;1.20;0.45;;;;;;;;;;5561535;25;20344;-56
2024/04/20 11:31:06;;;;;;;0.80;0.47;;;;;;;;;;5543601;25;20008;-56
2024/04/20 11:33:32;;;;;;;1.33;0.30;;;;;;;;;;5554190;25;20001;-58
2024/04/20 11:35:59;;;;;;;1.27;0.28;;;;;;;;;;5537698;25;20012;-55
2024/04/20 11:38:25;;;;;;;0.57;0.38;;;;;;;;;;5546570;25;20012;-59
2024/04/20 11:40:52;;;;;;;1.23;0.30;;;;;;;;;;5544548;25;20338;-55
2024/04/20 11:43:21;;;;;;;2.80;0.40;;;;;;;;;;5535768;25;20033;-55
2024/04/20 11:45:50;;;;;;;1.70;0.40;;;;;;;;;;5554614;25;20436;-55
2024/04/20 11:48:16;;;;;;;1.02;0.47;;;;;;;;;;5543194;25;19997;-56
2024/04/20 11:50:45;;;;;;;0.65;0.40;;;;;;;;;;5552677;25;19992;-56
2024/04/20 11:55:56;;;;;;;1.42;0.50;;;;;;;;;;5537361;25;20008;-56
2024/04/20 11:58:22;;;;;;;1.58;0.20;;;;;;;;;;5530784;25;19993;-57
2024/04/20 12:00:52;;;;;;;0.57;0.20;;;;;;;;;;5543958;25;20079;-57
2024/04/20 12:03:18;;;;;;;0.52;0.30;;;;;;;;;;5545360;25;20452;-57
2024/04/20 12:05:48;;;;;;;1.05;0.68;;;;;;;;;;5535114;25;20033;-57
2024/04/20 12:08:14;;;;;;;0.80;0.30;;;;;;;;;;5536449;25;20005;-56
2024/04/20 12:10:40;;;;;;;0.73;0.28;;;;;;;;;;5534210;25;20001;-57
2024/04/20 12:13:07;;;;;;;0.60;0.28;;;;;;;;;;5535142;25;20023;-59
2024/04/20 12:15:33;;;;;;;0.52;0.20;;;;;;;;;;5531711;25;19996;-58
2024/04/20 12:17:59;;;;;;;0.45;0.25;;;;;;;;;;5530036;25;19993;-55
2024/04/20 12:20:25;;;;;;;0.40;0.20;;;;;;;;;;5529176;25;20103;-57
2024/04/20 12:22:51;;;;;;;0.80;0.20;;;;;;;;;;5539460;25;20005;-57
2024/04/20 12:25:20;;;;;;;2.03;0.30;;;;;;;;;;5531618;25;19997;-58
2024/04/20 12:27:46;;;;;;;1.85;0.40;;;;;;;;;;5540976;25;20329;-56
2024/04/20 12:30:12;;;;;;;0.63;0.32;;;;;;;;;;5551443;25;20008;-55
2024/04/20 12:32:38;;;;;;;0.68;0.30;;;;;;;;;;5560321;25;19996;-56
2024/04/20 12:35:04;;;;;;;1.70;0.43;;;;;;;;;;5562195;25;19997;-55
2024/04/20 12:37:30;;;;;;;1.98;0.20;;;;;;;;;;5562420;25;19996;-56
2024/04/20 12:39:56;;;;;;;1.45;0.30;;;;;;;;;;5547004;25;20001;-58
2024/04/20 12:42:22;;;;;;;2.38;0.30;;;;;;;;;;5539060;25;20004;-57
2024/04/20 12:44:57;;;;;;;1.17;0.40;;;;;;;;;;5528360;25;20114;-57
2024/04/20 12:47:23;;;;;;;1.40;0.20;;;;;;;;;;5559988;25;20072;-56
2024/04/20 12:49:49;;;;;;;4.57;0.45;;;;;;;;;;5550762;25;19997;-57
2024/04/20 12:52:15;;;;;;;0.95;0.30;;;;;;;;;;5561996;25;20000;-56
2024/04/20 12:54:41;;;;;;;0.52;0.32;;;;;;;;;;5561852;25;20032;-56
2024/04/20 12:57:07;;;;;;;1.13;0.32;;;;;;;;;;5558015;25;19997;-55
2024/04/20 12:59:32;;;;;;;0.40;0.30;;;;;;;;;;5561769;25;19997;-56
2024/04/20 13:01:58;;;;;;;0.95;0.30;;;;;;;;;;5562131;25;20456;-56
2024/04/20 13:04:24;;;;;;;1.83;0.40;;;;;;;;;;5534152;25;20431;-57
2024/04/20 13:06:50;;;;;;;1.10;0.40;;;;;;;;;;5561963;25;19993;-57
2024/04/20 13:09:16;;;;;;;1.35;0.50;;;;;;;;;;5546725;25;19997;-55
2024/04/20 13:11:42;;;;;;;1.23;0.40;;;;;;;;;;5543570;25;20016;-58
2024/04/20 13:14:08;;;;;;;1.75;0.35;;;;;;;;;;5545045;25;20007;-56
2024/04/20 13:16:34;;;;;;;1.13;0.30;;;;;;;;;;5529542;25;19997;-56
2024/04/20 13:19:00;;;;;;;1.35;0.30;;;;;;;;;;5542299;25;20072;-57
2024/04/20 13:21:26;;;;;;;2.25;0.60;;;;;;;;;;5559462;25;20007;-55
2024/04/20 13:23:52;;;;;;;0.50;0.20;;;;;;;;;;5558013;25;20469;-56
2024/04/20 13:26:18;;;;;;;0.98;0.22;;;;;;;;;;5556510;25;20011;-57
2024/04/20 13:28:44;;;;;;;0.30;0.20;;;;;;;;;;5561256;25;20456;-57
2024/04/20 13:31:10;;;;;;;1.25;0.43;;;;;;;;;;5548547;25;20012;-58
2024/04/20 13:33:36;;;;;;;1.05;0.32;;;;;;;;;;5548946;25;20005;-58
2024/04/20 13:36:03;;;;;;;0.55;0.15;;;;;;;;;;5559701;25;19992;-57
2024/04/20 13:38:30;;;;;;;1.80;0.35;;;;;;;;;;5536172;25;20025;-56
2024/04/20 13:41:05;;;;;;;1.25;0.20;;;;;;;;;;5547708;25;20340;-56
2024/04/20 13:43:31;;;;;;;0.10;0.10;;;;;;;;;;5552437;25;20005;-56
2024/04/20 13:46:11;;;;;;;0.35;0.30;;;;;;;;;;5556252;25;20001;-56
2024/04/20 13:48:37;;;;;;;0.40;0.30;;;;;;;;;;5561493;25;20352;-61
2024/04/20 13:51:04;;;;;;;4.03;0.90;;;;;;;;;;5549147;25;19993;-60
2024/04/20 13:53:30;;;;;;;0.47;0.30;;;;;;;;;;5544372;25;20008;-60
2024/04/20 13:55:56;;;;;;;0.40;0.30;;;;;;;;;;5539849;25;20003;-60
2024/04/20 13:58:22;;;;;;;0.75;0.30;;;;;;;;;;5559885;25;20036;-60
2024/04/20 14:00:49;;;;;;;0.60;0.25;;;;;;;;;;5542030;25;20025;-62
2024/04/20 14:03:15;;;;;;;4.78;0.57;;;;;;;;;;5552787;25;20465;-60
2024/04/20 14:05:48;;;;;;;3.22;0.40;;;;;;;;;;5552171;25;20008;-60
2024/04/20 14:08:14;;;;;;;0.73;0.30;;;;;;;;;;5547747;25;20013;-60
2024/04/20 14:10:40;;;;;;;1.55;0.32;;;;;;;;;;5534508;25;20085;-60
2024/04/20 14:13:10;;;;;;;0.60;0.32;;;;;;;;;;5556222;25;20001;-60
2024/04/20 14:15:36;;;;;;;0.60;0.30;;;;;;;;;;5539559;25;20080;-60
2024/04/20 14:18:03;;;;;;;0.52;0.40;;;;;;;;;;5552658;25;20397;-60
2024/04/20 14:20:29;;;;;;;1.50;0.28;;;;;;;;;;5559650;25;20328;-58
2024/04/20 14:22:55;;;;;;;0.65;0.30;;;;;;;;;;5559360;25;19997;-59
2024/04/20 14:25:21;;;;;;;1.02;0.40;;;;;;;;;;5559008;25;20375;-60
2024/04/20 14:27:47;;;;;;;0.50;0.30;;;;;;;;;;5544580;25;20330;-59
2024/04/20 14:30:14;;;;;;;1.80;0.40;;;;;;;;;;5554335;25;20012;-60
2024/04/20 14:32:40;;;;;;;0.68;0.40;;;;;;;;;;5546545;25;20520;-59
2024/04/20 14:35:06;;;;;;;0.70;0.30;;;;;;;;;;5560043;25;19993;-60
2024/04/20 14:37:35;;;;;;;2.65;0.50;;;;;;;;;;5560681;25;20007;-60
2024/04/20 14:40:01;;;;;;;0.90;0.40;;;;;;;;;;5550456;25;20447;-60
2024/04/20 14:42:27;;;;;;;0.80;0.30;;;;;;;;;;5559278;25;20003;-59